Time;durP1;ratioP1;P1;durP2;ratioP2;P2;SDS_P1;SDS_P2;PMS_P1;PMS_P2;Temp;Humidity;BMP_temperature;BMP_pressure;BME280_temperature;BME280_humidity;BME280_pressure;Samples;Min_cycle;Max_cycle;Signal;HPM_P1;HPM_P2
2022/03/16 00:01:43;;;;;;;;;;;11.90;89.20;;;;;;5078485;28;19909;-81
2022/03/16 00:04:08;;;;;;;;;;;11.90;88.80;;;;;;5060667;28;19914;-81
2022/03/16 00:06:34;;;;;;;;;;;11.80;88.60;;;;;;5078730;28;19970;-81
2022/03/16 00:09:00;;;;;;;;;;;11.80;88.30;;;;;;5060637;28;19915;-81
2022/03/16 00:11:26;;;;;;;;;;;11.80;88.00;;;;;;5078700;28;20371;-81
2022/03/16 00:13:51;;;;;;;;;;;11.80;88.00;;;;;;5078156;28;20283;-81
2022/03/16 00:16:17;;;;;;;;;;;11.80;87.10;;;;;;5078246;28;19912;-81
2022/03/16 00:18:43;;;;;;;;;;;11.80;87.30;;;;;;5078514;28;19908;-81
2022/03/16 00:21:08;;;;;;;;;;;11.80;86.80;;;;;;5078527;28;19908;-81
2022/03/16 00:23:34;;;;;;;;;;;11.80;86.50;;;;;;5078361;28;19915;-81
2022/03/16 00:26:00;;;;;;;;;;;11.70;86.20;;;;;;5078355;28;19909;-81
2022/03/16 00:28:25;;;;;;;;;;;11.70;86.00;;;;;;5078584;28;19908;-81
2022/03/16 00:30:51;;;;;;;;;;;11.70;85.90;;;;;;5078400;28;19909;-81
2022/03/16 00:33:17;;;;;;;;;;;11.70;85.90;;;;;;5077821;28;19915;-81
2022/03/16 00:35:42;;;;;;;;;;;11.70;85.80;;;;;;5078206;28;19934;-81
2022/03/16 00:38:09;;;;;;;;;;;11.60;85.80;;;;;;5078184;28;20032;-81
2022/03/16 00:40:35;;;;;;;;;;;11.60;85.70;;;;;;5077501;28;19951;-81
2022/03/16 00:43:01;;;;;;;;;;;11.60;85.60;;;;;;5064610;28;19950;-81
2022/03/16 00:45:27;;;;;;;;;;;11.60;85.60;;;;;;5078099;28;19936;-81
2022/03/16 00:47:52;;;;;;;;;;;11.50;85.50;;;;;;5057651;28;20429;-81
2022/03/16 00:50:18;;;;;;;;;;;11.50;85.30;;;;;;5058252;28;19908;-81
2022/03/16 00:52:44;;;;;;;;;;;11.50;85.40;;;;;;5057843;28;19908;-81
2022/03/16 00:55:09;;;;;;;;;;;11.50;85.60;;;;;;5057835;28;20359;-81
2022/03/16 00:57:35;;;;;;;;;;;11.50;85.50;;;;;;5057716;28;19912;-81
2022/03/16 01:00:01;;;;;;;;;;;11.50;85.70;;;;;;5057927;28;19948;-82
2022/03/16 01:02:27;;;;;;;;;;;11.50;85.80;;;;;;5057368;28;19912;-82
2022/03/16 01:04:52;;;;;;;;;;;11.50;85.50;;;;;;5056339;28;19913;-82
2022/03/16 01:07:18;;;;;;;;;;;11.40;85.30;;;;;;5057689;28;19909;-82
2022/03/16 01:09:43;;;;;;;;;;;11.40;85.20;;;;;;5057647;28;19909;-82
2022/03/16 01:12:09;;;;;;;;;;;11.40;85.20;;;;;;5057467;28;19916;-82
2022/03/16 01:14:35;;;;;;;;;;;11.40;85.30;;;;;;5050359;28;19909;-82
2022/03/16 01:17:01;;;;;;;;;;;11.30;85.20;;;;;;5057173;28;20429;-82
2022/03/16 01:19:28;;;;;;;;;;;11.30;85.30;;;;;;5057682;28;19916;-82
2022/03/16 01:21:53;;;;;;;;;;;11.30;85.20;;;;;;5056171;28;20366;-82
2022/03/16 01:24:19;;;;;;;;;;;11.30;85.30;;;;;;5057457;28;19947;-81
2022/03/16 01:26:45;;;;;;;;;;;11.30;85.40;;;;;;5057394;28;19915;-82
2022/03/16 01:29:10;;;;;;;;;;;11.20;85.20;;;;;;5057527;28;19931;-82
2022/03/16 01:31:36;;;;;;;;;;;11.20;85.40;;;;;;5057164;28;19944;-82
2022/03/16 01:34:02;;;;;;;;;;;11.20;85.50;;;;;;5057424;28;20372;-81
2022/03/16 01:36:28;;;;;;;;;;;11.20;85.50;;;;;;5057292;28;19912;-81
2022/03/16 01:38:53;;;;;;;;;;;11.10;85.50;;;;;;5057419;28;19916;-81
2022/03/16 01:41:19;;;;;;;;;;;11.10;85.50;;;;;;5052248;28;19916;-81
2022/03/16 01:43:45;;;;;;;;;;;11.10;85.50;;;;;;5048666;28;19916;-81
2022/03/16 01:46:10;;;;;;;;;;;11.00;86.00;;;;;;5062790;28;19921;-81
2022/03/16 01:48:36;;;;;;;;;;;11.00;85.40;;;;;;5077495;28;19916;-81
2022/03/16 01:51:03;;;;;;;;;;;11.00;85.20;;;;;;5077285;28;19909;-81
2022/03/16 01:53:28;;;;;;;;;;;11.00;85.30;;;;;;5077460;28;19995;-81
2022/03/16 01:55:54;;;;;;;;;;;10.90;85.20;;;;;;5077020;28;19997;-81
2022/03/16 01:58:19;;;;;;;;;;;10.90;85.20;;;;;;5080147;28;19908;-81
2022/03/16 02:00:45;;;;;;;;;;;10.90;85.30;;;;;;5081014;28;19935;-81
2022/03/16 02:03:11;;;;;;;;;;;10.90;85.30;;;;;;5080782;28;19916;-81
2022/03/16 02:05:37;;;;;;;;;;;10.80;85.30;;;;;;5080996;28;20073;-81
2022/03/16 02:08:08;;;;;;;;;;;10.80;85.40;;;;;;5081201;28;19958;-81
2022/03/16 02:10:33;;;;;;;;;;;10.80;85.20;;;;;;5080733;28;20439;-81
2022/03/16 02:12:59;;;;;;;;;;;10.80;85.30;;;;;;5080775;28;19967;-81
2022/03/16 02:15:25;;;;;;;;;;;10.80;85.60;;;;;;5080860;28;19909;-81
2022/03/16 02:17:53;;;;;;;;;;;10.80;85.80;;;;;;5080654;28;19942;-81
2022/03/16 02:20:18;;;;;;;;;;;10.70;85.80;;;;;;5080897;28;19913;-81
2022/03/16 02:23:07;;;;;;;;;;;10.70;85.60;;;;;;5080646;28;19909;-81
2022/03/16 02:25:34;;;;;;;;;;;10.70;85.60;;;;;;5062552;28;19912;-81
2022/03/16 02:28:00;;;;;;;;;;;10.70;85.70;;;;;;5080472;28;19934;-81
2022/03/16 02:30:27;;;;;;;;;;;10.70;86.00;;;;;;5080779;28;19908;-81
2022/03/16 02:32:53;;;;;;;;;;;10.60;85.90;;;;;;5062069;28;19937;-81
2022/03/16 02:35:18;;;;;;;;;;;10.70;85.70;;;;;;5080593;28;19999;-81
2022/03/16 02:37:44;;;;;;;;;;;10.60;86.40;;;;;;5080310;28;19913;-81
2022/03/16 02:40:11;;;;;;;;;;;10.60;87.60;;;;;;5080274;28;19908;-81
2022/03/16 02:42:37;;;;;;;;;;;10.60;88.40;;;;;;5066730;28;20355;-81
2022/03/16 02:45:04;;;;;;;;;;;10.60;89.00;;;;;;5080338;28;19920;-81
2022/03/16 02:47:30;;;;;;;;;;;10.70;88.80;;;;;;5079756;28;20015;-81
2022/03/16 02:49:56;;;;;;;;;;;10.70;89.10;;;;;;5080407;28;19944;-81
2022/03/16 02:52:22;;;;;;;;;;;10.70;89.20;;;;;;5080170;28;19958;-81
2022/03/16 02:54:48;;;;;;;;;;;10.70;89.50;;;;;;5080134;28;20349;-81
2022/03/16 02:57:16;;;;;;;;;;;10.70;89.70;;;;;;5080131;28;19973;-80
2022/03/16 02:59:44;;;;;;;;;;;10.70;89.90;;;;;;5080187;28;19908;-81
2022/03/16 03:02:11;;;;;;;;;;;10.70;90.30;;;;;;5079668;28;19909;-81
2022/03/16 03:04:36;;;;;;;;;;;10.70;90.20;;;;;;5079950;28;20314;-81
2022/03/16 03:07:02;;;;;;;;;;;10.70;90.10;;;;;;5079839;28;19954;-81
2022/03/16 03:09:28;;;;;;;;;;;10.70;90.10;;;;;;5078768;28;19958;-81
2022/03/16 03:11:54;;;;;;;;;;;10.70;90.30;;;;;;5079617;28;19915;-81
2022/03/16 03:14:20;;;;;;;;;;;10.70;90.30;;;;;;5061657;28;19915;-81
2022/03/16 03:16:46;;;;;;;;;;;10.70;90.50;;;;;;5079279;28;21086;-81
2022/03/16 03:19:12;;;;;;;;;;;10.70;90.20;;;;;;5079875;28;19969;-81
2022/03/16 03:21:38;;;;;;;;;;;10.70;90.00;;;;;;5079595;28;19908;-81
2022/03/16 03:24:04;;;;;;;;;;;10.70;89.70;;;;;;5079548;28;19908;-81
2022/03/16 03:26:29;;;;;;;;;;;10.70;89.90;;;;;;5079465;28;19912;-81
2022/03/16 03:28:55;;;;;;;;;;;10.70;90.00;;;;;;5079615;28;19908;-81
2022/03/16 03:31:21;;;;;;;;;;;10.70;90.40;;;;;;5079110;28;20437;-81
2022/03/16 03:33:46;;;;;;;;;;;10.70;90.70;;;;;;5079436;28;19909;-81
2022/03/16 03:36:12;;;;;;;;;;;10.70;90.60;;;;;;5079146;28;20003;-81
2022/03/16 03:38:38;;;;;;;;;;;10.70;90.50;;;;;;5079490;28;19912;-81
2022/03/16 03:41:04;;;;;;;;;;;10.70;90.40;;;;;;5057815;28;19916;-81
2022/03/16 03:43:29;;;;;;;;;;;10.70;90.50;;;;;;5068094;28;19909;-81
2022/03/16 03:45:55;;;;;;;;;;;10.60;90.40;;;;;;5078796;28;19916;-81
2022/03/16 03:48:20;;;;;;;;;;;10.60;90.40;;;;;;5079145;28;19908;-81
2022/03/16 03:50:46;;;;;;;;;;;10.60;90.40;;;;;;5078956;28;19909;-81
2022/03/16 03:53:12;;;;;;;;;;;10.60;90.20;;;;;;5079003;28;19930;-81
2022/03/16 03:55:38;;;;;;;;;;;10.60;90.00;;;;;;5078766;28;19919;-81
2022/03/16 03:58:04;;;;;;;;;;;10.60;90.20;;;;;;5078934;28;19936;-81
2022/03/16 04:00:29;;;;;;;;;;;10.60;90.00;;;;;;5078888;28;19908;-81
2022/03/16 04:02:55;;;;;;;;;;;10.50;90.00;;;;;;5060498;28;19942;-81
2022/03/16 04:05:21;;;;;;;;;;;10.50;90.10;;;;;;5078761;28;19908;-81
2022/03/16 04:07:50;;;;;;;;;;;10.50;90.20;;;;;;5078739;28;19976;-81
2022/03/16 04:10:16;;;;;;;;;;;10.50;90.30;;;;;;5078479;28;19916;-81
2022/03/16 04:12:41;;;;;;;;;;;10.50;90.30;;;;;;5078484;28;20447;-81
2022/03/16 04:15:07;;;;;;;;;;;10.50;90.50;;;;;;5060498;28;20335;-81
2022/03/16 04:17:33;;;;;;;;;;;10.50;90.40;;;;;;5060256;28;19920;-81
2022/03/16 04:19:59;;;;;;;;;;;10.50;90.20;;;;;;5078217;28;19931;-81
2022/03/16 04:22:28;;;;;;;;;;;10.50;90.60;;;;;;5078559;28;19999;-81
2022/03/16 04:24:54;;;;;;;;;;;10.50;90.30;;;;;;5078270;28;19912;-81
2022/03/16 04:27:20;;;;;;;;;;;10.50;90.20;;;;;;5078399;28;19915;-81
2022/03/16 04:29:46;;;;;;;;;;;10.50;90.20;;;;;;5078273;28;19991;-81
2022/03/16 04:32:11;;;;;;;;;;;10.50;90.20;;;;;;5077900;28;19909;-81
2022/03/16 04:34:37;;;;;;;;;;;10.50;90.20;;;;;;5078114;28;19908;-81
2022/03/16 04:37:03;;;;;;;;;;;10.50;90.20;;;;;;5078030;28;19916;-81
2022/03/16 04:39:29;;;;;;;;;;;10.50;90.50;;;;;;5077233;28;19916;-81
2022/03/16 04:41:55;;;;;;;;;;;10.50;90.50;;;;;;5068869;28;19916;-81
2022/03/16 04:44:20;;;;;;;;;;;10.50;90.40;;;;;;5089426;28;19916;-81
2022/03/16 04:46:46;;;;;;;;;;;10.50;90.50;;;;;;5077773;28;19920;-81
2022/03/16 04:49:11;;;;;;;;;;;10.50;90.60;;;;;;5077955;28;19918;-81
2022/03/16 04:51:37;;;;;;;;;;;10.50;90.60;;;;;;5078155;28;19915;-81
2022/03/16 04:54:03;;;;;;;;;;;10.50;90.60;;;;;;5077829;28;19917;-81
2022/03/16 04:56:29;;;;;;;;;;;10.50;90.60;;;;;;5078044;28;20397;-81
2022/03/16 04:58:55;;;;;;;;;;;10.50;90.50;;;;;;5077842;28;19908;-81
2022/03/16 05:01:20;;;;;;;;;;;10.50;90.50;;;;;;5077732;28;19916;-81
2022/03/16 05:03:46;;;;;;;;;;;10.50;90.50;;;;;;5077653;28;19916;-81
2022/03/16 05:06:11;;;;;;;;;;;10.50;90.70;;;;;;5078050;28;19908;-81
2022/03/16 05:08:37;;;;;;;;;;;10.50;90.80;;;;;;5077768;28;19940;-81
2022/03/16 05:11:03;;;;;;;;;;;10.50;91.00;;;;;;5059673;28;19912;-81
2022/03/16 05:13:29;;;;;;;;;;;10.50;91.30;;;;;;5077505;28;20346;-81
2022/03/16 05:15:55;;;;;;;;;;;10.50;91.60;;;;;;5077525;28;19908;-81
2022/03/16 05:18:23;;;;;;;;;;;10.50;91.70;;;;;;5077560;28;19909;-81
2022/03/16 05:20:48;;;;;;;;;;;10.50;91.80;;;;;;5077744;28;19916;-81
2022/03/16 05:23:14;;;;;;;;;;;10.50;91.90;;;;;;5077539;28;19909;-80
2022/03/16 05:25:41;;;;;;;;;;;10.50;92.10;;;;;;5059554;28;19909;-81
2022/03/16 05:28:07;;;;;;;;;;;10.50;92.20;;;;;;5077510;28;19908;-81
2022/03/16 05:30:33;;;;;;;;;;;10.50;92.10;;;;;;5077741;28;19913;-81
2022/03/16 05:33:02;;;;;;;;;;;10.50;92.10;;;;;;5079318;28;19951;-81
2022/03/16 05:35:28;;;;;;;;;;;10.50;92.00;;;;;;5081617;28;19908;-81
2022/03/16 05:37:53;;;;;;;;;;;10.50;92.10;;;;;;5081483;28;19931;-82
2022/03/16 05:40:19;;;;;;;;;;;10.50;91.90;;;;;;5081394;28;20330;-75
2022/03/16 05:42:45;;;;;;;;;;;10.50;91.90;;;;;;5068021;28;19955;-74
2022/03/16 05:45:10;;;;;;;;;;;10.50;91.80;;;;;;5081505;28;19909;-75
2022/03/16 05:47:36;;;;;;;;;;;10.50;91.90;;;;;;5080938;28;19995;-76
2022/03/16 05:50:02;;;;;;;;;;;10.60;91.90;;;;;;5081470;28;19916;-81
2022/03/16 05:52:29;;;;;;;;;;;10.50;91.80;;;;;;5081164;28;19908;-79
2022/03/16 05:54:56;;;;;;;;;;;10.50;91.80;;;;;;5081277;28;19908;-75
2022/03/16 05:57:22;;;;;;;;;;;10.60;91.80;;;;;;5081135;28;19913;-74
2022/03/16 05:59:47;;;;;;;;;;;10.60;91.60;;;;;;5081317;28;19908;-75
2022/03/16 06:02:13;;;;;;;;;;;10.60;91.40;;;;;;5062758;28;19952;-75
2022/03/16 06:04:40;;;;;;;;;;;10.60;91.30;;;;;;5081051;28;19909;-76
2022/03/16 06:07:05;;;;;;;;;;;10.60;91.20;;;;;;5080912;28;19956;-77
2022/03/16 06:09:31;;;;;;;;;;;10.60;91.10;;;;;;5081057;28;19916;-83
2022/03/16 06:11:57;;;;;;;;;;;10.60;90.90;;;;;;5080816;28;19915;-85
2022/03/16 06:14:23;;;;;;;;;;;10.60;90.80;;;;;;5062926;28;19923;-75
2022/03/16 06:16:49;;;;;;;;;;;10.60;90.80;;;;;;5080554;28;20282;-70
2022/03/16 06:19:14;;;;;;;;;;;10.60;91.30;;;;;;5081129;28;19909;-72
2022/03/16 06:21:40;;;;;;;;;;;10.60;91.50;;;;;;5080773;28;19991;-80
2022/03/16 06:24:06;;;;;;;;;;;10.60;91.60;;;;;;5080618;28;19908;-79
2022/03/16 06:26:32;;;;;;;;;;;10.60;91.40;;;;;;5080450;28;19956;-79
2022/03/16 06:28:58;;;;;;;;;;;10.70;91.20;;;;;;5080661;28;19915;-79
2022/03/16 06:31:23;;;;;;;;;;;10.60;91.10;;;;;;5079481;28;19912;-79
2022/03/16 06:33:49;;;;;;;;;;;10.70;91.00;;;;;;5080517;28;19931;-79
2022/03/16 06:36:15;;;;;;;;;;;10.70;91.00;;;;;;5080305;28;20054;-79
2022/03/16 06:38:40;;;;;;;;;;;10.70;91.00;;;;;;5080664;28;20332;-79
2022/03/16 06:41:06;;;;;;;;;;;10.70;90.80;;;;;;5076723;28;20346;-79
2022/03/16 06:43:31;;;;;;;;;;;10.70;90.70;;;;;;5069444;28;19920;-79
2022/03/16 06:45:57;;;;;;;;;;;10.70;90.60;;;;;;5079848;28;19925;-79
2022/03/16 06:48:23;;;;;;;;;;;10.70;90.50;;;;;;5080422;28;19944;-79
2022/03/16 06:50:50;;;;;;;;;;;10.70;90.40;;;;;;5080351;28;19924;-79
2022/03/16 06:53:15;;;;;;;;;;;10.70;90.70;;;;;;5080470;28;19909;-79
2022/03/16 06:55:41;;;;;;;;;;;10.70;90.80;;;;;;5080095;28;19971;-79
2022/03/16 06:58:06;;;;;;;;;;;10.70;91.00;;;;;;5080069;28;19913;-79
2022/03/16 07:00:32;;;;;;;;;;;10.70;91.20;;;;;;5080026;28;21456;-79
2022/03/16 07:03:02;;;;;;;;;;;10.70;91.30;;;;;;5078877;28;19909;-79
2022/03/16 07:05:29;;;;;;;;;;;10.70;91.30;;;;;;5079884;28;19916;-79
2022/03/16 07:07:58;;;;;;;;;;;10.70;91.20;;;;;;5078954;28;19909;-79
2022/03/16 07:10:24;;;;;;;;;;;10.70;91.30;;;;;;5079888;28;19999;-79
2022/03/16 07:12:49;;;;;;;;;;;10.70;91.10;;;;;;5079741;28;19940;-79
2022/03/16 07:15:15;;;;;;;;;;;10.80;91.10;;;;;;5079897;28;19909;-79
2022/03/16 07:17:41;;;;;;;;;;;10.80;91.10;;;;;;5079556;28;19912;-79
2022/03/16 07:20:07;;;;;;;;;;;10.80;91.00;;;;;;5079722;28;19962;-79
2022/03/16 07:22:34;;;;;;;;;;;10.70;91.20;;;;;;5079758;28;19908;-79
2022/03/16 07:25:01;;;;;;;;;;;10.80;91.20;;;;;;5079539;28;19909;-79
2022/03/16 07:27:26;;;;;;;;;;;10.80;91.10;;;;;;5079717;28;19908;-79
2022/03/16 07:29:52;;;;;;;;;;;10.80;91.00;;;;;;5079546;28;19919;-80
2022/03/16 07:32:18;;;;;;;;;;;10.80;90.90;;;;;;5079193;28;19920;-79
2022/03/16 07:34:43;;;;;;;;;;;10.80;90.70;;;;;;5079423;28;20003;-79
2022/03/16 07:37:09;;;;;;;;;;;10.80;90.90;;;;;;5079586;28;20264;-79
2022/03/16 07:39:35;;;;;;;;;;;10.80;91.00;;;;;;5060286;28;20436;-79
2022/03/16 07:42:00;;;;;;;;;;;10.80;91.10;;;;;;5069478;28;19921;-79
2022/03/16 07:44:26;;;;;;;;;;;10.80;91.40;;;;;;5075811;28;19912;-79
2022/03/16 07:46:52;;;;;;;;;;;10.80;91.30;;;;;;5078908;28;20387;-79
2022/03/16 07:49:17;;;;;;;;;;;10.80;91.20;;;;;;5079138;28;20395;-79
2022/03/16 07:51:43;;;;;;;;;;;10.80;91.30;;;;;;5079339;28;19920;-79
2022/03/16 07:54:08;;;;;;;;;;;10.80;91.20;;;;;;5079049;28;20280;-79
2022/03/16 07:56:34;;;;;;;;;;;10.80;91.10;;;;;;5078452;28;19938;-79
2022/03/16 07:59:01;;;;;;;;;;;10.80;91.20;;;;;;5078942;28;19908;-79
2022/03/16 08:01:28;;;;;;;;;;;10.80;91.10;;;;;;5078800;28;19912;-79
2022/03/16 08:03:54;;;;;;;;;;;10.90;91.00;;;;;;5078817;28;20351;-79
2022/03/16 08:06:19;;;;;;;;;;;10.90;91.00;;;;;;5079169;28;19940;-79
2022/03/16 08:08:45;;;;;;;;;;;10.90;91.00;;;;;;5060969;28;19909;-79
2022/03/16 08:11:11;;;;;;;;;;;10.90;90.90;;;;;;5078742;28;19908;-79
2022/03/16 08:13:37;;;;;;;;;;;10.90;90.90;;;;;;5078542;28;19916;-79
2022/03/16 08:16:03;;;;;;;;;;;10.90;90.80;;;;;;5078349;28;19975;-80
2022/03/16 08:18:29;;;;;;;;;;;11.00;90.80;;;;;;5078564;28;20325;-79
2022/03/16 08:20:55;;;;;;;;;;;11.00;90.80;;;;;;5078597;28;19908;-79
2022/03/16 08:23:20;;;;;;;;;;;11.00;90.80;;;;;;5078445;28;19908;-79
2022/03/16 08:25:47;;;;;;;;;;;11.00;90.80;;;;;;5078397;28;19908;-79
2022/03/16 08:28:12;;;;;;;;;;;11.00;90.80;;;;;;5060646;28;19936;-79
2022/03/16 08:30:38;;;;;;;;;;;11.10;90.90;;;;;;5078237;28;19908;-79
2022/03/16 08:33:04;;;;;;;;;;;11.00;91.00;;;;;;5078247;28;19934;-79
2022/03/16 08:35:29;;;;;;;;;;;11.00;91.20;;;;;;5078358;28;19959;-79
2022/03/16 08:37:55;;;;;;;;;;;11.10;91.20;;;;;;5078043;28;19913;-79
2022/03/16 08:40:21;;;;;;;;;;;11.10;91.20;;;;;;5078065;28;19908;-79
2022/03/16 08:42:48;;;;;;;;;;;11.10;91.40;;;;;;5064580;28;19908;-79
2022/03/16 08:45:14;;;;;;;;;;;11.10;91.40;;;;;;5078185;28;20363;-79
2022/03/16 08:47:39;;;;;;;;;;;11.10;91.40;;;;;;5077700;28;19920;-79
2022/03/16 08:50:06;;;;;;;;;;;11.20;91.50;;;;;;5078173;28;20436;-79
2022/03/16 08:52:32;;;;;;;;;;;11.20;91.60;;;;;;5077865;28;19908;-79
2022/03/16 08:54:57;;;;;;;;;;;11.20;91.70;;;;;;5077970;28;19909;-79
2022/03/16 08:57:23;;;;;;;;;;;11.20;91.60;;;;;;5077913;28;20053;-79
2022/03/16 08:59:49;;;;;;;;;;;11.20;91.60;;;;;;5078038;28;19908;-79
2022/03/16 09:02:15;;;;;;;;;;;11.30;91.80;;;;;;5077532;28;20391;-79
2022/03/16 09:04:41;;;;;;;;;;;11.30;91.80;;;;;;5060128;28;19909;-79
2022/03/16 09:07:06;;;;;;;;;;;11.30;91.80;;;;;;5077083;28;20431;-79
2022/03/16 09:09:33;;;;;;;;;;;11.30;91.90;;;;;;5077791;28;20268;-79
2022/03/16 09:11:59;;;;;;;;;;;11.30;91.90;;;;;;5077705;28;19947;-79
2022/03/16 09:14:24;;;;;;;;;;;11.40;91.90;;;;;;5077566;28;19908;-79
2022/03/16 09:16:50;;;;;;;;;;;11.40;92.00;;;;;;5077535;28;19912;-79
2022/03/16 09:19:20;;;;;;;;;;;11.40;91.90;;;;;;5077990;28;19915;-79
2022/03/16 09:21:47;;;;;;;;;;;11.50;91.90;;;;;;5077727;28;19908;-79
2022/03/16 09:24:13;;;;;;;;;;;11.50;91.90;;;;;;5077604;28;19916;-79
2022/03/16 09:26:42;;;;;;;;;;;11.50;91.90;;;;;;5077778;28;19908;-79
2022/03/16 09:29:09;;;;;;;;;;;11.50;91.90;;;;;;5077645;28;19915;-79
2022/03/16 09:31:35;;;;;;;;;;;11.60;91.90;;;;;;5077458;28;19951;-79
2022/03/16 09:34:02;;;;;;;;;;;11.60;91.90;;;;;;5077497;28;20371;-79
2022/03/16 09:36:27;;;;;;;;;;;11.60;91.90;;;;;;5077497;28;19935;-80
2022/03/16 09:38:55;;;;;;;;;;;11.60;91.90;;;;;;5077692;28;20298;-79
2022/03/16 09:41:21;;;;;;;;;;;11.60;91.90;;;;;;5072439;28;19923;-79
2022/03/16 09:43:48;;;;;;;;;;;11.60;91.90;;;;;;5069097;28;19909;-79
2022/03/16 09:46:16;;;;;;;;;;;11.70;91.90;;;;;;5058970;28;19924;-79
2022/03/16 09:48:41;;;;;;;;;;;11.70;91.80;;;;;;5077754;28;19908;-79
2022/03/16 09:51:09;;;;;;;;;;;11.70;91.80;;;;;;5077365;28;19909;-79
2022/03/16 09:53:35;;;;;;;;;;;11.80;91.80;;;;;;5077305;28;20283;-79
2022/03/16 09:56:00;;;;;;;;;;;11.80;91.80;;;;;;5077152;28;19919;-79
2022/03/16 09:58:27;;;;;;;;;;;11.80;91.80;;;;;;5077622;28;19908;-79
2022/03/16 10:00:53;;;;;;;;;;;11.90;91.90;;;;;;5076957;28;19915;-79
2022/03/16 10:03:21;;;;;;;;;;;11.90;91.80;;;;;;5059234;28;19915;-79
2022/03/16 10:05:47;;;;;;;;;;;12.00;91.70;;;;;;5077261;28;19908;-79
2022/03/16 10:08:14;;;;;;;;;;;12.00;91.70;;;;;;5077422;28;19908;-79
2022/03/16 10:13:25;;;;;;;;;;;12.10;91.80;;;;;;5077229;28;19975;-79
2022/03/16 10:15:52;;;;;;;;;;;12.10;91.70;;;;;;5077239;28;19912;-79
2022/03/16 10:18:23;;;;;;;;;;;12.20;91.70;;;;;;5078105;28;19909;-79
2022/03/16 10:20:52;;;;;;;;;;;12.10;91.60;;;;;;5081006;28;19931;-79
2022/03/16 10:23:23;;;;;;;;;;;12.20;91.60;;;;;;5080752;28;19908;-80
2022/03/16 10:25:51;;;;;;;;;;;12.20;91.50;;;;;;5080637;28;19909;-79
2022/03/16 10:28:16;;;;;;;;;;;12.30;91.60;;;;;;5062662;28;19920;-79
2022/03/16 10:30:50;;;;;;;;;;;12.30;91.50;;;;;;5062513;28;20295;-79
2022/03/16 10:33:16;;;;;;;;;;;12.40;91.40;;;;;;5080480;28;19934;-79
2022/03/16 10:35:55;;;;;;;;;;;12.40;91.50;;;;;;5080642;28;19944;-79
2022/03/16 10:38:22;;;;;;;;;;;12.40;91.20;;;;;;5068845;28;20391;-80
2022/03/16 10:40:53;;;;;;;;;;;12.50;91.20;;;;;;5079899;28;20291;-80
2022/03/16 10:49:05;;;;;;;;;;;12.60;91.00;;;;;;5080580;28;19915;-79
2022/03/16 10:51:31;;;;;;;;;;;12.60;90.90;;;;;;5080444;28;19991;-79
2022/03/16 10:53:59;;;;;;;;;;;12.60;90.90;;;;;;5062135;28;19910;-79
2022/03/16 10:56:27;;;;;;;;;;;12.70;90.90;;;;;;5080200;28;20558;-79
2022/03/16 10:58:53;;;;;;;;;;;12.70;90.90;;;;;;5080192;28;20290;-79
2022/03/16 11:01:20;;;;;;;;;;;12.70;90.80;;;;;;5079874;28;20433;-79
2022/03/16 11:03:47;;;;;;;;;;;12.80;90.80;;;;;;5079999;28;19909;-79
2022/03/16 11:06:13;;;;;;;;;;;12.80;90.80;;;;;;5080127;28;19909;-79
2022/03/16 11:08:41;;;;;;;;;;;12.90;90.80;;;;;;5079892;28;20295;-79
2022/03/16 11:13:27;;;;;;;;;;;12.90;90.80;;;;;;5079831;28;19978;-79
2022/03/16 11:13:54;;;;;;;;;;;13.00;90.70;;;;;;5078526;28;20395;-79
2022/03/16 11:16:23;;;;;;;;;;;13.10;90.60;;;;;;5079584;28;19976;-79
2022/03/16 11:18:49;;;;;;;;;;;13.10;90.50;;;;;;5080102;28;19915;-79
2022/03/16 11:21:18;;;;;;;;;;;13.10;90.50;;;;;;5079629;28;20337;-79
2022/03/16 11:26:49;;;;;;;;;;;13.20;90.40;;;;;;5079876;28;19915;-80
2022/03/16 11:29:38;;;;;;;;;;;13.30;90.40;;;;;;5079105;28;19951;-79
2022/03/16 11:32:11;;;;;;;;;;;13.30;90.40;;;;;;5079314;28;20375;-79
2022/03/16 11:34:37;;;;;;;;;;;13.40;90.40;;;;;;5079465;28;20469;-79
2022/03/16 11:37:07;;;;;;;;;;;13.40;90.30;;;;;;5079415;28;19912;-79
2022/03/16 11:39:45;;;;;;;;;;;13.50;90.30;;;;;;5078500;28;20397;-79
2022/03/16 11:42:15;;;;;;;;;;;13.60;90.30;;;;;;5067820;28;19970;-79
2022/03/16 11:44:41;;;;;;;;;;;13.60;90.20;;;;;;5078722;28;19915;-79
2022/03/16 11:47:10;;;;;;;;;;;13.60;90.10;;;;;;5078884;28;19921;-79
2022/03/16 11:49:38;;;;;;;;;;;13.60;90.00;;;;;;5079292;28;19908;-79
2022/03/16 11:52:04;;;;;;;;;;;13.60;90.00;;;;;;5079410;28;19934;-79
2022/03/16 11:54:39;;;;;;;;;;;13.60;89.90;;;;;;5078917;28;20367;-79
2022/03/16 11:57:05;;;;;;;;;;;13.60;89.80;;;;;;5061208;28;19927;-79
2022/03/16 11:59:31;;;;;;;;;;;13.60;89.70;;;;;;5061132;28;19909;-79
2022/03/16 12:02:05;;;;;;;;;;;13.60;89.70;;;;;;5060622;28;19916;-79
2022/03/16 12:04:31;;;;;;;;;;;13.60;90.10;;;;;;5078816;28;19909;-79
2022/03/16 12:07:03;;;;;;;;;;;13.60;89.70;;;;;;5078850;28;19916;-79
2022/03/16 12:09:45;;;;;;;;;;;13.60;89.70;;;;;;5078874;28;19915;-79
2022/03/16 12:14:58;;;;;;;;;;;13.50;89.60;;;;;;5078911;28;19941;-79
2022/03/16 12:17:24;;;;;;;;;;;13.60;89.60;;;;;;5078472;28;19912;-79
2022/03/16 12:20:11;;;;;;;;;;;13.60;89.60;;;;;;5061055;28;19996;-79
2022/03/16 12:22:38;;;;;;;;;;;13.50;89.60;;;;;;5060601;28;20000;-79
2022/03/16 12:25:25;;;;;;;;;;;13.50;89.40;;;;;;5078268;28;19976;-79
2022/03/16 12:30:45;;;;;;;;;;;13.60;89.40;;;;;;5078198;28;19923;-79
2022/03/16 12:33:19;;;;;;;;;;;13.60;89.30;;;;;;5078187;28;19908;-79
2022/03/16 12:35:46;;;;;;;;;;;13.60;89.20;;;;;;5078114;28;19909;-79
2022/03/16 12:38:11;;;;;;;;;;;13.60;89.30;;;;;;5078298;28;19921;-79
2022/03/16 12:43:23;;;;;;;;;;;13.60;89.10;;;;;;5066611;28;19938;-79
2022/03/16 12:45:49;;;;;;;;;;;13.60;89.00;;;;;;5077752;28;19928;-79
2022/03/16 12:48:19;;;;;;;;;;;13.70;89.40;;;;;;5078358;28;19912;-79
2022/03/16 12:50:47;;;;;;;;;;;13.70;89.40;;;;;;5077940;28;20303;-79
2022/03/16 12:53:13;;;;;;;;;;;13.70;89.40;;;;;;5078099;28;20431;-79
2022/03/16 12:55:53;;;;;;;;;;;13.70;89.40;;;;;;5077934;28;20031;-79
2022/03/16 12:58:22;;;;;;;;;;;13.70;89.10;;;;;;5077999;28;20302;-79
2022/03/16 13:00:57;;;;;;;;;;;13.70;89.00;;;;;;5077512;28;19916;-79
2022/03/16 13:03:22;;;;;;;;;;;13.70;89.20;;;;;;5077785;28;19908;-79
2022/03/16 13:05:49;;;;;;;;;;;13.70;89.20;;;;;;5077969;28;19916;-79
2022/03/16 13:08:16;;;;;;;;;;;13.70;89.50;;;;;;5078099;28;19916;-79
2022/03/16 13:13:27;;;;;;;;;;;13.70;89.00;;;;;;5077791;28;20420;-79
2022/03/16 13:15:53;;;;;;;;;;;13.80;89.30;;;;;;5059612;28;19999;-79
2022/03/16 13:18:29;;;;;;;;;;;13.80;89.50;;;;;;5077733;28;19955;-79
2022/03/16 13:20:54;;;;;;;;;;;13.80;89.30;;;;;;5077817;28;19908;-79
2022/03/16 13:23:32;;;;;;;;;;;13.80;89.20;;;;;;5059590;28;19954;-79
2022/03/16 13:26:05;;;;;;;;;;;13.70;89.50;;;;;;5077707;28;19908;-79
2022/03/16 13:28:31;;;;;;;;;;;13.70;89.30;;;;;;5065045;28;19963;-79
2022/03/16 13:30:57;;;;;;;;;;;13.70;89.40;;;;;;5077265;28;19908;-79
2022/03/16 13:33:27;;;;;;;;;;;13.70;89.40;;;;;;5077755;28;19915;-79
2022/03/16 13:36:12;;;;;;;;;;;13.70;89.60;;;;;;5077826;28;19957;-79
2022/03/16 13:38:38;;;;;;;;;;;13.60;89.50;;;;;;5077585;28;19912;-79
2022/03/16 13:41:11;;;;;;;;;;;13.60;90.00;;;;;;5074690;28;19920;-79
2022/03/16 13:43:38;;;;;;;;;;;13.60;90.00;;;;;;5067575;28;19952;-79
2022/03/16 13:46:13;;;;;;;;;;;13.70;90.20;;;;;;5077033;28;19924;-79
2022/03/16 13:48:44;;;;;;;;;;;13.60;90.20;;;;;;5077513;28;20375;-79
2022/03/16 13:51:11;;;;;;;;;;;13.60;90.30;;;;;;5077396;28;20007;-79
2022/03/16 13:53:42;;;;;;;;;;;13.60;90.50;;;;;;5079056;28;19912;-79
2022/03/16 13:56:12;;;;;;;;;;;13.60;90.60;;;;;;5081076;28;19908;-79
2022/03/16 13:58:39;;;;;;;;;;;13.60;90.70;;;;;;5081347;28;20352;-78
2022/03/16 14:01:05;;;;;;;;;;;13.50;90.70;;;;;;5063072;28;19908;-78
2022/03/16 14:03:31;;;;;;;;;;;13.50;90.80;;;;;;5081136;28;19947;-78
2022/03/16 14:05:57;;;;;;;;;;;13.40;90.80;;;;;;5081464;28;19909;-79
2022/03/16 14:08:24;;;;;;;;;;;13.40;90.90;;;;;;5080961;28;19915;-79
2022/03/16 14:10:51;;;;;;;;;;;13.40;91.00;;;;;;5081210;28;19912;-79
2022/03/16 14:13:17;;;;;;;;;;;13.30;91.30;;;;;;5080796;28;20339;-79
2022/03/16 14:15:44;;;;;;;;;;;13.30;91.20;;;;;;5080952;28;19908;-79
2022/03/16 14:18:13;;;;;;;;;;;13.30;91.20;;;;;;5080753;28;20260;-79
2022/03/16 14:20:43;;;;;;;;;;;13.20;91.20;;;;;;5081041;28;19948;-79
2022/03/16 14:23:09;;;;;;;;;;;13.20;90.80;;;;;;5062702;28;19908;-79
2022/03/16 14:25:39;;;;;;;;;;;13.20;90.80;;;;;;5080818;28;19963;-79
2022/03/16 14:28:07;;;;;;;;;;;13.10;90.70;;;;;;5080914;28;19916;-79
2022/03/16 14:30:34;;;;;;;;;;;13.10;90.70;;;;;;5080439;28;19909;-79
2022/03/16 14:33:03;;;;;;;;;;;13.00;90.60;;;;;;5080435;28;19909;-79
2022/03/16 14:35:31;;;;;;;;;;;13.00;90.70;;;;;;5080635;28;19953;-79
2022/03/16 14:37:58;;;;;;;;;;;12.90;90.50;;;;;;5080417;28;20002;-79